sensor_id;sensor_type;location;lat;lon;timestamp;pressure;altitude;pressure_sealevel;temperature;humidity
55263;BME280;41125;48.752;9.168;2023-08-20T00:00:07;97220.81;;;21.94;95.69
55263;BME280;41125;48.752;9.168;2023-08-20T00:00:39;97220.81;;;21.94;95.58
55263;BME280;41125;48.752;9.168;2023-08-20T00:01:12;97225.53;;;21.94;95.91
55263;BME280;41125;48.752;9.168;2023-08-20T00:01:47;97228.66;;;21.92;95.63
55263;BME280;41125;48.752;9.168;2023-08-20T00:02:23;97224.31;;;21.91;95.91
55263;BME280;41125;48.752;9.168;2023-08-20T00:03:13;97224.31;;;21.91;95.74
55263;BME280;41125;48.752;9.168;2023-08-20T00:03:45;97223.50;;;21.91;95.91
55263;BME280;41125;48.752;9.168;2023-08-20T00:04:17;97221.91;;;21.90;95.95
55263;BME280;41125;48.752;9.168;2023-08-20T00:04:50;97231.78;;;21.91;96.18
55263;BME280;41125;48.752;9.168;2023-08-20T00:05:22;97225.47;;;21.90;96.19
55263;BME280;41125;48.752;9.168;2023-08-20T00:05:55;97227.06;;;21.91;96.22
55263;BME280;41125;48.752;9.168;2023-08-20T00:06:27;97225.47;;;21.90;96.46
55263;BME280;41125;48.752;9.168;2023-08-20T00:06:59;97221.91;;;21.90;96.19
55263;BME280;41125;48.752;9.168;2023-08-20T00:07:34;97219.94;;;21.90;96.26
55263;BME280;41125;48.752;9.168;2023-08-20T00:08:06;97229.38;;;21.89;96.42
55263;BME280;41125;48.752;9.168;2023-08-20T00:08:37;97230.19;;;21.90;96.14
55263;BME280;41125;48.752;9.168;2023-08-20T00:09:08;97226.63;;;21.89;96.45
55263;BME280;41125;48.752;9.168;2023-08-20T00:09:39;97225.47;;;21.90;96.67
55263;BME280;41125;48.752;9.168;2023-08-20T00:10:11;97230.97;;;21.90;96.50
55263;BME280;41125;48.752;9.168;2023-08-20T00:10:42;97230.97;;;21.90;96.55
55263;BME280;41125;48.752;9.168;2023-08-20T00:11:16;97230.97;;;21.90;96.75
55263;BME280;41125;48.752;9.168;2023-08-20T00:11:47;97235.72;;;21.90;96.65
55263;BME280;41125;48.752;9.168;2023-08-20T00:12:19;97233.75;;;21.90;96.83
55263;BME280;41125;48.752;9.168;2023-08-20T00:12:50;97230.97;;;21.90;96.65
55263;BME280;41125;48.752;9.168;2023-08-20T00:13:22;97242.84;;;21.91;96.79
55263;BME280;41125;48.752;9.168;2023-08-20T00:13:54;97242.03;;;21.90;96.64
55263;BME280;41125;48.752;9.168;2023-08-20T00:14:53;97243.19;;;21.89;96.51
55263;BME280;41125;48.752;9.168;2023-08-20T00:15:29;97230.19;;;21.90;96.25
55263;BME280;41125;48.752;9.168;2023-08-20T00:16:01;97231.78;;;21.91;96.49
55263;BME280;41125;48.752;9.168;2023-08-20T00:16:34;97243.63;;;21.91;96.68
55263;BME280;41125;48.752;9.168;2023-08-20T00:17:08;97229.81;;;21.91;96.58
55263;BME280;41125;48.752;9.168;2023-08-20T00:17:41;97238.12;;;21.91;96.46
55263;BME280;41125;48.752;9.168;2023-08-20T00:18:13;97249.97;;;21.92;96.37
55263;BME280;41125;48.752;9.168;2023-08-20T00:18:45;97233.38;;;21.92;96.18
55263;BME280;41125;48.752;9.168;2023-08-20T00:19:17;97238.12;;;21.91;96.43
55263;BME280;41125;48.752;9.168;2023-08-20T00:19:53;97234.19;;;21.92;96.54
55263;BME280;41125;48.752;9.168;2023-08-20T00:20:26;97239.72;;;21.92;96.70
55263;BME280;41125;48.752;9.168;2023-08-20T00:20:59;97234.19;;;21.92;96.62
55263;BME280;41125;48.752;9.168;2023-08-20T00:21:31;97236.94;;;21.92;96.69
55263;BME280;41125;48.752;9.168;2023-08-20T00:22:03;97230.28;;;21.93;96.67
55263;BME280;41125;48.752;9.168;2023-08-20T00:22:35;97234.19;;;21.92;96.71
55263;BME280;41125;48.752;9.168;2023-08-20T00:23:08;97235.00;;;21.93;96.62
55263;BME280;41125;48.752;9.168;2023-08-20T00:23:40;97237.41;;;21.94;96.83
55263;BME280;41125;48.752;9.168;2023-08-20T00:24:12;97242.91;;;21.94;96.56
55263;BME280;41125;48.752;9.168;2023-08-20T00:24:45;97231.88;;;21.94;96.76
55263;BME280;41125;48.752;9.168;2023-08-20T00:25:17;97235.78;;;21.93;97.00
55263;BME280;41125;48.752;9.168;2023-08-20T00:25:49;97236.94;;;21.92;96.80
55263;BME280;41125;48.752;9.168;2023-08-20T00:26:21;97232.59;;;21.91;97.00
55263;BME280;41125;48.752;9.168;2023-08-20T00:26:53;97244.44;;;21.92;97.07
55263;BME280;41125;48.752;9.168;2023-08-20T00:27:24;97242.03;;;21.90;96.94
55263;BME280;41125;48.752;9.168;2023-08-20T00:27:58;97248.38;;;21.91;97.16
55263;BME280;41125;48.752;9.168;2023-08-20T00:28:31;97242.84;;;21.91;96.95
55263;BME280;41125;48.752;9.168;2023-08-20T00:29:07;97247.56;;;21.90;97.01
55263;BME280;41125;48.752;9.168;2023-08-20T00:29:39;97253.09;;;21.90;96.96
55263;BME280;41125;48.752;9.168;2023-08-20T00:30:12;97246.41;;;21.91;97.34
55263;BME280;41125;48.752;9.168;2023-08-20T00:30:43;97249.16;;;21.91;97.21
55263;BME280;41125;48.752;9.168;2023-08-20T00:31:16;97249.53;;;21.90;97.24
55263;BME280;41125;48.752;9.168;2023-08-20T00:31:50;97248.72;;;21.89;97.09
55263;BME280;41125;48.752;9.168;2023-08-20T00:32:21;97247.91;;;21.89;96.97
55263;BME280;41125;48.752;9.168;2023-08-20T00:32:52;97248.28;;;21.87;96.95
55263;BME280;41125;48.752;9.168;2023-08-20T00:33:25;97256.19;;;21.89;96.83
55263;BME280;41125;48.752;9.168;2023-08-20T00:33:58;97249.87;;;21.88;97.03
55263;BME280;41125;48.752;9.168;2023-08-20T00:34:30;97249.06;;;21.88;97.24
55263;BME280;41125;48.752;9.168;2023-08-20T00:35:02;97254.59;;;21.88;97.05
55263;BME280;41125;48.752;9.168;2023-08-20T00:35:38;97250.22;;;21.87;97.25
55263;BME280;41125;48.752;9.168;2023-08-20T00:36:09;97252.19;;;21.86;97.30
55263;BME280;41125;48.752;9.168;2023-08-20T00:36:43;97249.44;;;21.86;97.55
55263;BME280;41125;48.752;9.168;2023-08-20T00:37:15;97248.28;;;21.87;97.22
55263;BME280;41125;48.752;9.168;2023-08-20T00:37:47;97244.25;;;21.85;97.56
55263;BME280;41125;48.752;9.168;2023-08-20T00:38:18;97247.81;;;21.85;97.31
55263;BME280;41125;48.752;9.168;2023-08-20T00:38:51;97244.63;;;21.83;97.35
55263;BME280;41125;48.752;9.168;2023-08-20T00:39:23;97241.84;;;21.83;97.40
55263;BME280;41125;48.752;9.168;2023-08-20T00:39:54;97244.63;;;21.83;97.80
55263;BME280;41125;48.752;9.168;2023-08-20T00:40:25;97248.97;;;21.84;97.42
55263;BME280;41125;48.752;9.168;2023-08-20T00:41:00;97252.91;;;21.83;97.58
55263;BME280;41125;48.752;9.168;2023-08-20T00:41:31;97246.22;;;21.84;97.92
55263;BME280;41125;48.752;9.168;2023-08-20T00:42:03;97247.38;;;21.83;97.88
55263;BME280;41125;48.752;9.168;2023-08-20T00:42:36;97248.56;;;21.82;97.54
55263;BME280;41125;48.752;9.168;2023-08-20T00:43:07;97256.06;;;21.82;97.90
55263;BME280;41125;48.752;9.168;2023-08-20T00:43:39;97241.44;;;21.81;97.58
55263;BME280;41125;48.752;9.168;2023-08-20T00:44:10;97247.31;;;21.80;97.80
55263;BME280;41125;48.752;9.168;2023-08-20T00:44:42;97248.13;;;21.80;97.87
55263;BME280;41125;48.752;9.168;2023-08-20T00:45:16;97252.03;;;21.79;97.97
55263;BME280;41125;48.752;9.168;2023-08-20T00:45:51;97242.94;;;21.79;98.03
55263;BME280;41125;48.752;9.168;2023-08-20T00:46:22;97248.47;;;21.79;98.48
55263;BME280;41125;48.752;9.168;2023-08-20T00:46:54;97250.78;;;21.77;98.36
55263;BME280;41125;48.752;9.168;2023-08-20T00:47:30;97252.75;;;21.76;98.62
55263;BME280;41125;48.752;9.168;2023-08-20T00:48:04;97252.31;;;21.74;98.96
55263;BME280;41125;48.752;9.168;2023-08-20T00:48:36;97251.84;;;21.72;98.88
55263;BME280;41125;48.752;9.168;2023-08-20T00:49:11;97255.78;;;21.71;98.53
55263;BME280;41125;48.752;9.168;2023-08-20T00:49:42;97247.03;;;21.69;98.91
55263;BME280;41125;48.752;9.168;2023-08-20T00:50:14;97248.66;;;21.70;98.60
55263;BME280;41125;48.752;9.168;2023-08-20T00:50:47;97251.41;;;21.70;98.75
55263;BME280;41125;48.752;9.168;2023-08-20T00:51:22;97252.56;;;21.69;98.54
55263;BME280;41125;48.752;9.168;2023-08-20T00:51:54;97248.19;;;21.68;98.62
55263;BME280;41125;48.752;9.168;2023-08-20T00:52:26;97251.75;;;21.68;98.64
55263;BME280;41125;48.752;9.168;2023-08-20T00:52:57;97253.38;;;21.69;99.07
55263;BME280;41125;48.752;9.168;2023-08-20T00:53:32;97251.41;;;21.70;99.00
55263;BME280;41125;48.752;9.168;2023-08-20T00:54:04;97246.25;;;21.68;98.96
55263;BME280;41125;48.752;9.168;2023-08-20T00:54:39;97259.69;;;21.70;99.00
55263;BME280;41125;48.752;9.168;2023-08-20T00:55:13;97249.81;;;21.69;99.22
55263;BME280;41125;48.752;9.168;2023-08-20T00:55:45;97247.03;;;21.69;99.04
55263;BME280;41125;48.752;9.168;2023-08-20T00:56:16;97249.81;;;21.69;99.05
55263;BME280;41125;48.752;9.168;2023-08-20T00:56:49;97247.03;;;21.69;98.69
55263;BME280;41125;48.752;9.168;2023-08-20T00:57:22;97247.03;;;21.69;98.94
55263;BME280;41125;48.752;9.168;2023-08-20T00:57:54;97248.19;;;21.68;98.98
55263;BME280;41125;48.752;9.168;2023-08-20T00:58:26;97250.97;;;21.68;98.89
55263;BME280;41125;48.752;9.168;2023-08-20T00:58:58;97249.34;;;21.67;98.94
55263;BME280;41125;48.752;9.168;2023-08-20T00:59:31;97250.97;;;21.68;98.98
55263;BME280;41125;48.752;9.168;2023-08-20T01:00:03;97251.75;;;21.68;99.15
55263;BME280;41125;48.752;9.168;2023-08-20T01:00:41;97246.25;;;21.68;99.04
55263;BME280;41125;48.752;9.168;2023-08-20T01:01:13;97245.09;;;21.69;99.10
55263;BME280;41125;48.752;9.168;2023-08-20T01:01:45;97245.09;;;21.69;99.18
55263;BME280;41125;48.752;9.168;2023-08-20T01:02:18;97248.66;;;21.70;98.77
55263;BME280;41125;48.752;9.168;2023-08-20T01:02:49;97245.88;;;21.70;99.13
55263;BME280;41125;48.752;9.168;2023-08-20T01:03:21;97244.28;;;21.69;98.74
55263;BME280;41125;48.752;9.168;2023-08-20T01:03:52;97247.03;;;21.69;98.59
55263;BME280;41125;48.752;9.168;2023-08-20T01:04:24;97246.25;;;21.68;98.63
55263;BME280;41125;48.752;9.168;2023-08-20T01:04:55;97247.03;;;21.69;98.96
55263;BME280;41125;48.752;9.168;2023-08-20T01:05:29;97241.53;;;21.69;98.86
55263;BME280;41125;48.752;9.168;2023-08-20T01:06:38;97244.28;;;21.69;99.01
55263;BME280;41125;48.752;9.168;2023-08-20T01:07:27;97243.13;;;21.70;98.82
55263;BME280;41125;48.752;9.168;2023-08-20T01:08:13;97244.72;;;21.71;98.81
55263;BME280;41125;48.752;9.168;2023-08-20T01:08:47;97245.88;;;21.70;98.56
55263;BME280;41125;48.752;9.168;2023-08-20T01:11:00;97241.53;;;21.69;98.58
55263;BME280;41125;48.752;9.168;2023-08-20T01:11:40;97247.03;;;21.69;98.45
55263;BME280;41125;48.752;9.168;2023-08-20T01:12:18;97253.38;;;21.69;98.45
55263;BME280;41125;48.752;9.168;2023-08-20T01:12:51;97243.47;;;21.68;98.89
55263;BME280;41125;48.752;9.168;2023-08-20T01:13:23;97251.75;;;21.68;98.64
55263;BME280;41125;48.752;9.168;2023-08-20T01:13:55;97244.28;;;21.69;98.97
55263;BME280;41125;48.752;9.168;2023-08-20T01:14:26;97247.03;;;21.69;98.81
55263;BME280;41125;48.752;9.168;2023-08-20T01:14:58;97250.97;;;21.68;98.79
55263;BME280;41125;48.752;9.168;2023-08-20T01:15:29;97251.31;;;21.66;99.37
55263;BME280;41125;48.752;9.168;2023-08-20T01:16:00;97245.00;;;21.66;100.00
55263;BME280;41125;48.752;9.168;2023-08-20T01:16:32;97256.75;;;21.63;99.35
55263;BME280;41125;48.752;9.168;2023-08-20T01:17:03;97250.78;;;21.61;99.31
55263;BME280;41125;48.752;9.168;2023-08-20T01:17:34;97253.53;;;21.61;99.52
55263;BME280;41125;48.752;9.168;2023-08-20T01:18:06;97249.97;;;21.60;99.39
55263;BME280;41125;48.752;9.168;2023-08-20T01:18:39;97239.53;;;21.54;99.67
55263;BME280;41125;48.752;9.168;2023-08-20T01:19:14;97258.63;;;21.59;99.61
55263;BME280;41125;48.752;9.168;2023-08-20T01:19:47;97251.50;;;21.58;99.56
55263;BME280;41125;48.752;9.168;2023-08-20T01:20:27;97251.50;;;21.58;100.00
55263;BME280;41125;48.752;9.168;2023-08-20T01:21:03;97255.41;;;21.57;99.82
55263;BME280;41125;48.752;9.168;2023-08-20T01:21:54;97253.81;;;21.56;99.65
55263;BME280;41125;48.752;9.168;2023-08-20T01:24:01;97255.41;;;21.57;99.79
55263;BME280;41125;48.752;9.168;2023-08-20T01:26:21;97256.56;;;21.56;99.90
55263;BME280;41125;48.752;9.168;2023-08-20T01:28:37;97246.66;;;21.55;100.00
55263;BME280;41125;48.752;9.168;2023-08-20T01:29:10;97250.59;;;21.54;100.00
55263;BME280;41125;48.752;9.168;2023-08-20T01:29:42;97253.69;;;21.52;100.00
55263;BME280;41125;48.752;9.168;2023-08-20T01:30:15;97250.13;;;21.52;100.00
55263;BME280;41125;48.752;9.168;2023-08-20T01:30:47;97255.22;;;21.50;100.00
55263;BME280;41125;48.752;9.168;2023-08-20T01:31:20;97259.13;;;21.49;100.00
55263;BME280;41125;48.752;9.168;2023-08-20T01:31:53;97253.59;;;21.49;100.00
55263;BME280;41125;48.752;9.168;2023-08-20T01:32:25;97250.84;;;21.49;100.00
55263;BME280;41125;48.752;9.168;2023-08-20T01:32:58;97252.84;;;21.48;100.00
55263;BME280;41125;48.752;9.168;2023-08-20T01:33:30;97248.47;;;21.47;100.00
55263;BME280;41125;48.752;9.168;2023-08-20T01:34:03;97253.59;;;21.49;100.00
55263;BME280;41125;48.752;9.168;2023-08-20T01:34:38;97246.50;;;21.48;100.00
55263;BME280;41125;48.752;9.168;2023-08-20T01:35:13;97252.03;;;21.48;100.00
55263;BME280;41125;48.752;9.168;2023-08-20T01:35:47;97252.03;;;21.48;100.00
55263;BME280;41125;48.752;9.168;2023-08-20T01:36:20;97252.03;;;21.48;100.00
55263;BME280;41125;48.752;9.168;2023-08-20T01:36:52;97253.59;;;21.49;100.00
55263;BME280;41125;48.752;9.168;2023-08-20T01:37:25;97248.81;;;21.46;100.00
55263;BME280;41125;48.752;9.168;2023-08-20T01:37:56;97257.91;;;21.46;100.00
55263;BME280;41125;48.752;9.168;2023-08-20T01:38:27;97261.47;;;21.47;100.00
55263;BME280;41125;48.752;9.168;2023-08-20T01:39:02;97252.75;;;21.45;100.00
55263;BME280;41125;48.752;9.168;2023-08-20T01:39:35;97257.47;;;21.44;100.00
55263;BME280;41125;48.752;9.168;2023-08-20T01:40:10;97263.78;;;21.45;100.00
55263;BME280;41125;48.752;9.168;2023-08-20T01:40:42;97255.50;;;21.45;100.00
55263;BME280;41125;48.752;9.168;2023-08-20T01:41:13;97258.25;;;21.45;100.00
55263;BME280;41125;48.752;9.168;2023-08-20T01:41:46;97256.66;;;21.44;100.00
55263;BME280;41125;48.752;9.168;2023-08-20T01:42:18;97257.47;;;21.44;100.00
55263;BME280;41125;48.752;9.168;2023-08-20T01:42:49;97256.66;;;21.44;100.00
55263;BME280;41125;48.752;9.168;2023-08-20T01:43:20;97264.13;;;21.43;100.00
55263;BME280;41125;48.752;9.168;2023-08-20T01:43:52;97266.09;;;21.43;100.00
55263;BME280;41125;48.752;9.168;2023-08-20T01:44:24;97258.97;;;21.42;100.00
55263;BME280;41125;48.752;9.168;2023-08-20T01:44:55;97261.72;;;21.42;100.00
55263;BME280;41125;48.752;9.168;2023-08-20T01:45:27;97258.97;;;21.42;100.00
55263;BME280;41125;48.752;9.168;2023-08-20T01:46:01;97255.06;;;21.43;100.00
55263;BME280;41125;48.752;9.168;2023-08-20T01:46:34;97261.72;;;21.42;100.00
55263;BME280;41125;48.752;9.168;2023-08-20T01:47:05;97258.97;;;21.42;100.00
55263;BME280;41125;48.752;9.168;2023-08-20T01:47:37;97261.72;;;21.42;100.00
55263;BME280;41125;48.752;9.168;2023-08-20T01:48:08;97260.56;;;21.43;100.00
55263;BME280;41125;48.752;9.168;2023-08-20T01:48:40;97257.81;;;21.43;100.00
55263;BME280;41125;48.752;9.168;2023-08-20T01:49:11;97250.69;;;21.42;100.00
55263;BME280;41125;48.752;9.168;2023-08-20T01:49:42;97250.69;;;21.42;100.00
55263;BME280;41125;48.752;9.168;2023-08-20T01:50:14;97251.50;;;21.42;100.00
55263;BME280;41125;48.752;9.168;2023-08-20T01:50:45;97261.72;;;21.42;100.00
55263;BME280;41125;48.752;9.168;2023-08-20T01:51:16;97264.50;;;21.42;100.00
55263;BME280;41125;48.752;9.168;2023-08-20T01:51:48;97258.97;;;21.42;100.00
55263;BME280;41125;48.752;9.168;2023-08-20T01:52:19;97253.00;;;21.39;100.00
55263;BME280;41125;48.752;9.168;2023-08-20T01:52:54;97260.13;;;21.40;100.00
55263;BME280;41125;48.752;9.168;2023-08-20T01:53:25;97256.56;;;21.40;100.00
55263;BME280;41125;48.752;9.168;2023-08-20T01:53:56;97261.28;;;21.39;100.00
55263;BME280;41125;48.752;9.168;2023-08-20T01:54:28;97261.28;;;21.39;100.00
55263;BME280;41125;48.752;9.168;2023-08-20T01:55:00;97259.69;;;21.38;100.00
55263;BME280;41125;48.752;9.168;2023-08-20T01:55:31;97254.97;;;21.39;100.00
55263;BME280;41125;48.752;9.168;2023-08-20T01:56:02;97253.34;;;21.38;100.00
55263;BME280;41125;48.752;9.168;2023-08-20T01:56:35;97260.84;;;21.37;100.00
55263;BME280;41125;48.752;9.168;2023-08-20T01:57:07;97266.34;;;21.37;100.00
55263;BME280;41125;48.752;9.168;2023-08-20T01:57:38;97261.97;;;21.36;100.00
55263;BME280;41125;48.752;9.168;2023-08-20T01:58:10;97259.22;;;21.36;100.00
55263;BME280;41125;48.752;9.168;2023-08-20T01:58:41;97259.22;;;21.36;100.00
55263;BME280;41125;48.752;9.168;2023-08-20T01:59:12;97259.22;;;21.36;100.00
55263;BME280;41125;48.752;9.168;2023-08-20T01:59:44;97255.66;;;21.36;100.00
55263;BME280;41125;48.752;9.168;2023-08-20T02:00:15;97254.84;;;21.35;100.00
55263;BME280;41125;48.752;9.168;2023-08-20T02:00:46;97259.56;;;21.35;100.00
55263;BME280;41125;48.752;9.168;2023-08-20T02:01:18;97258.78;;;21.34;100.00
55263;BME280;41125;48.752;9.168;2023-08-20T02:01:50;97259.94;;;21.33;100.00
55263;BME280;41125;48.752;9.168;2023-08-20T02:02:21;97257.16;;;21.33;100.00
55263;BME280;41125;48.752;9.168;2023-08-20T02:02:52;97259.47;;;21.31;100.00
55263;BME280;41125;48.752;9.168;2023-08-20T02:03:25;97263.03;;;21.32;100.00
55263;BME280;41125;48.752;9.168;2023-08-20T02:04:03;97261.44;;;21.31;100.00
55263;BME280;41125;48.752;9.168;2023-08-20T02:04:34;97259.47;;;21.31;100.00
55263;BME280;41125;48.752;9.168;2023-08-20T02:05:09;97259.47;;;21.31;100.00
55263;BME280;41125;48.752;9.168;2023-08-20T02:05:41;97258.69;;;21.31;100.00
55263;BME280;41125;48.752;9.168;2023-08-20T02:06:14;97265.00;;;21.31;100.00
55263;BME280;41125;48.752;9.168;2023-08-20T02:06:49;97257.87;;;21.30;100.00
55263;BME280;41125;48.752;9.168;2023-08-20T02:07:21;97256.28;;;21.29;100.00
55263;BME280;41125;48.752;9.168;2023-08-20T02:07:54;97261.00;;;21.29;100.00
55263;BME280;41125;48.752;9.168;2023-08-20T02:08:25;97260.19;;;21.28;100.00
55263;BME280;41125;48.752;9.168;2023-08-20T02:08:56;97257.78;;;21.27;100.00
55263;BME280;41125;48.752;9.168;2023-08-20T02:09:28;97256.97;;;21.26;100.00
55263;BME280;41125;48.752;9.168;2023-08-20T02:09:59;97268.00;;;21.26;100.00
55263;BME280;41125;48.752;9.168;2023-08-20T02:10:35;97273.53;;;21.26;100.00
55263;BME280;41125;48.752;9.168;2023-08-20T02:11:06;97264.00;;;21.24;100.00
55263;BME280;41125;48.752;9.168;2023-08-20T02:11:38;97264.00;;;21.24;100.00
55263;BME280;41125;48.752;9.168;2023-08-20T02:12:10;97267.13;;;21.22;100.00
55263;BME280;41125;48.752;9.168;2023-08-20T02:12:42;97259.97;;;21.21;100.00
55263;BME280;41125;48.752;9.168;2023-08-20T02:13:13;97263.88;;;21.20;100.00
55263;BME280;41125;48.752;9.168;2023-08-20T02:13:45;97263.88;;;21.20;100.00
55263;BME280;41125;48.752;9.168;2023-08-20T02:14:16;97259.50;;;21.19;100.00
55263;BME280;41125;48.752;9.168;2023-08-20T02:14:51;97259.50;;;21.19;100.00
55263;BME280;41125;48.752;9.168;2023-08-20T02:15:23;97256.75;;;21.19;100.00
55263;BME280;41125;48.752;9.168;2023-08-20T02:16:04;97262.25;;;21.19;100.00
55263;BME280;41125;48.752;9.168;2023-08-20T02:16:35;97263.06;;;21.20;100.00
55263;BME280;41125;48.752;9.168;2023-08-20T02:17:10;97262.25;;;21.19;100.00
55263;BME280;41125;48.752;9.168;2023-08-20T02:17:43;97260.66;;;21.18;100.00
55263;BME280;41125;48.752;9.168;2023-08-20T02:18:15;97263.78;;;21.17;100.00
55263;BME280;41125;48.752;9.168;2023-08-20T02:18:47;97272.41;;;21.15;100.00
55263;BME280;41125;48.752;9.168;2023-08-20T02:19:23;97263.69;;;21.13;100.00
55263;BME280;41125;48.752;9.168;2023-08-20T02:19:55;97262.91;;;21.13;100.00
55263;BME280;41125;48.752;9.168;2023-08-20T02:20:30;97267.63;;;21.12;100.00
55263;BME280;41125;48.752;9.168;2023-08-20T02:21:02;97270.38;;;21.12;100.00
55263;BME280;41125;48.752;9.168;2023-08-20T02:21:34;97267.63;;;21.12;100.00
55263;BME280;41125;48.752;9.168;2023-08-20T02:22:05;97262.91;;;21.13;100.00
55263;BME280;41125;48.752;9.168;2023-08-20T02:22:39;97269.22;;;21.13;100.00
55263;BME280;41125;48.752;9.168;2023-08-20T02:23:11;97273.47;;;21.11;100.00
55263;BME280;41125;48.752;9.168;2023-08-20T02:23:43;97273.13;;;21.12;100.00
55263;BME280;41125;48.752;9.168;2023-08-20T02:24:14;97267.63;;;21.12;100.00
55263;BME280;41125;48.752;9.168;2023-08-20T02:24:46;97269.91;;;21.10;100.00
55263;BME280;41125;48.752;9.168;2023-08-20T02:25:17;97270.72;;;21.11;100.00
55263;BME280;41125;48.752;9.168;2023-08-20T02:25:49;97262.69;;;21.05;100.00
55263;BME280;41125;48.752;9.168;2023-08-20T02:26:22;97270.16;;;21.05;100.00
55263;BME280;41125;48.752;9.168;2023-08-20T02:26:55;97269.00;;;21.06;100.00
55263;BME280;41125;48.752;9.168;2023-08-20T02:27:29;97267.41;;;21.05;100.00
55263;BME280;41125;48.752;9.168;2023-08-20T02:28:04;97268.22;;;21.05;100.00
55263;BME280;41125;48.752;9.168;2023-08-20T02:28:36;97270.63;;;21.07;100.00
55263;BME280;41125;48.752;9.168;2023-08-20T02:29:07;97269.00;;;21.06;100.00
55263;BME280;41125;48.752;9.168;2023-08-20T02:29:38;97263.50;;;21.06;100.00
55263;BME280;41125;48.752;9.168;2023-08-20T02:30:12;97264.31;;;21.06;100.00
55263;BME280;41125;48.752;9.168;2023-08-20T02:30:47;97265.09;;;21.07;100.00
55263;BME280;41125;48.752;9.168;2023-08-20T02:31:21;97262.34;;;21.07;100.00
55263;BME280;41125;48.752;9.168;2023-08-20T02:31:53;97257.97;;;21.06;100.00
55263;BME280;41125;48.752;9.168;2023-08-20T02:32:25;97266.72;;;21.08;100.00
55263;BME280;41125;48.752;9.168;2023-08-20T02:32:56;97262.34;;;21.07;100.00
55263;BME280;41125;48.752;9.168;2023-08-20T02:33:28;97263.50;;;21.06;100.00
55263;BME280;41125;48.752;9.168;2023-08-20T02:33:59;97267.06;;;21.06;100.00
55263;BME280;41125;48.752;9.168;2023-08-20T02:34:31;97254.06;;;21.07;100.00
55263;BME280;41125;48.752;9.168;2023-08-20T02:35:03;97266.72;;;21.08;100.00
55263;BME280;41125;48.752;9.168;2023-08-20T02:35:37;97261.19;;;21.08;100.00
55263;BME280;41125;48.752;9.168;2023-08-20T02:36:09;97262.78;;;21.09;100.00
55263;BME280;41125;48.752;9.168;2023-08-20T02:36:40;97265.56;;;21.09;100.00
55263;BME280;41125;48.752;9.168;2023-08-20T02:37:11;97269.12;;;21.10;100.00
55263;BME280;41125;48.752;9.168;2023-08-20T02:37:43;97264.41;;;21.10;100.00
55263;BME280;41125;48.752;9.168;2023-08-20T02:38:14;97262.78;;;21.09;100.00
55263;BME280;41125;48.752;9.168;2023-08-20T02:38:46;97263.59;;;21.10;100.00
55263;BME280;41125;48.752;9.168;2023-08-20T02:39:17;97269.47;;;21.08;100.00
55263;BME280;41125;48.752;9.168;2023-08-20T02:39:48;97263.94;;;21.08;100.00
55263;BME280;41125;48.752;9.168;2023-08-20T02:40:20;97268.31;;;21.09;100.00
55263;BME280;41125;48.752;9.168;2023-08-20T02:40:51;97268.31;;;21.09;100.00
55263;BME280;41125;48.752;9.168;2023-08-20T02:41:23;97268.31;;;21.09;100.00
55263;BME280;41125;48.752;9.168;2023-08-20T02:41:58;97271.06;;;21.09;100.00
55263;BME280;41125;48.752;9.168;2023-08-20T02:42:29;97269.91;;;21.10;100.00
55263;BME280;41125;48.752;9.168;2023-08-20T02:43:00;97268.31;;;21.09;100.00
55263;BME280;41125;48.752;9.168;2023-08-20T02:43:32;97268.31;;;21.09;100.00
55263;BME280;41125;48.752;9.168;2023-08-20T02:44:04;97269.91;;;21.10;100.00
55263;BME280;41125;48.752;9.168;2023-08-20T02:44:35;97265.56;;;21.09;100.00
55263;BME280;41125;48.752;9.168;2023-08-20T02:45:07;97266.00;;;21.11;100.00
55263;BME280;41125;48.752;9.168;2023-08-20T02:45:43;97267.63;;;21.12;100.00
55263;BME280;41125;48.752;9.168;2023-08-20T02:46:14;97264.41;;;21.10;100.00
55263;BME280;41125;48.752;9.168;2023-08-20T02:46:45;97271.53;;;21.11;100.00
55263;BME280;41125;48.752;9.168;2023-08-20T02:47:18;97264.41;;;21.10;100.00
55263;BME280;41125;48.752;9.168;2023-08-20T02:47:49;97269.91;;;21.10;100.00
55263;BME280;41125;48.752;9.168;2023-08-20T02:48:20;97264.41;;;21.10;100.00
55263;BME280;41125;48.752;9.168;2023-08-20T02:48:56;97266.72;;;21.08;100.00
55263;BME280;41125;48.752;9.168;2023-08-20T02:49:27;97268.31;;;21.09;100.00
55263;BME280;41125;48.752;9.168;2023-08-20T02:50:03;97271.41;;;21.07;100.00
55263;BME280;41125;48.752;9.168;2023-08-20T02:50:35;97265.09;;;21.07;100.00
55263;BME280;41125;48.752;9.168;2023-08-20T02:51:06;97262.34;;;21.07;100.00
55263;BME280;41125;48.752;9.168;2023-08-20T02:51:39;97267.88;;;21.07;100.00
55263;BME280;41125;48.752;9.168;2023-08-20T02:52:12;97264.31;;;21.06;100.00
55263;BME280;41125;48.752;9.168;2023-08-20T02:52:45;97269.00;;;21.06;100.00
55263;BME280;41125;48.752;9.168;2023-08-20T02:53:17;97271.78;;;21.06;100.00
55263;BME280;41125;48.752;9.168;2023-08-20T02:53:50;97271.78;;;21.06;100.00
55263;BME280;41125;48.752;9.168;2023-08-20T02:54:21;97261.88;;;21.05;100.00
55263;BME280;41125;48.752;9.168;2023-08-20T02:54:53;97272.13;;;21.04;100.00
55263;BME280;41125;48.752;9.168;2023-08-20T02:55:24;97268.56;;;21.04;100.00
55263;BME280;41125;48.752;9.168;2023-08-20T02:55:55;97271.31;;;21.04;100.00
55263;BME280;41125;48.752;9.168;2023-08-20T02:56:29;97268.09;;;21.02;100.00
55263;BME280;41125;48.752;9.168;2023-08-20T02:57:01;97261.78;;;21.01;100.00
55263;BME280;41125;48.752;9.168;2023-08-20T02:57:33;97264.91;;;21.00;100.00
55263;BME280;41125;48.752;9.168;2023-08-20T02:58:06;97263.28;;;20.99;100.00
55263;BME280;41125;48.752;9.168;2023-08-20T02:58:38;97269.16;;;20.97;100.00
55263;BME280;41125;48.752;9.168;2023-08-20T02:59:09;97265.59;;;20.97;100.00
55263;BME280;41125;48.752;9.168;2023-08-20T02:59:44;97265.59;;;20.97;100.00